This is the latest recevied weather packets stored in our database for station/object HB9CJD-1. If no packets are shown the sender has not sent any weather packets the latest 10 day(s).
| Time | Temp. | Humidity | Pressure | Rain* | Wind** | Luminosity | Snow |
|---|---|---|---|---|---|---|---|
| 1777914315 | 16.11° C | 65% | 1015.9 hPa | - | - | - | - |
| 1777914315 | 16.11° C | 65% | 1015.9 hPa | - | - | - | - |
| 1777913712 | 16.11° C | 64% | 1015.9 hPa | - | - | - | - |
| 1777913712 | 16.11° C | 64% | 1015.9 hPa | - | - | - | - |
| 1777913109 | 16.11° C | 63% | 1016 hPa | - | - | - | - |
| 1777913109 | 16.11° C | 63% | 1016 hPa | - | - | - | - |
| 1777912505 | 16.67° C | 61% | 1016 hPa | - | - | - | - |
| 1777912505 | 16.67° C | 61% | 1016 hPa | - | - | - | - |
| 1777911902 | 16.67° C | 59% | 1016 hPa | - | - | - | - |
| 1777911902 | 16.67° C | 59% | 1016 hPa | - | - | - | - |
| 1777911299 | 17.78° C | 56% | 1015.9 hPa | - | - | - | - |
| 1777911299 | 17.78° C | 56% | 1015.9 hPa | - | - | - | - |
| 1777910696 | 18.33° C | 49% | 1015.5 hPa | - | - | - | - |
| 1777910696 | 18.33° C | 49% | 1015.5 hPa | - | - | - | - |
| 1777910093 | 18.89° C | 47% | 1015.3 hPa | - | - | - | - |
| 1777910092 | 18.89° C | 47% | 1015.3 hPa | - | - | - | - |
| 1777909489 | 20° C | 45% | 1015.3 hPa | - | - | - | - |
| 1777909489 | 20° C | 45% | 1015.3 hPa | - | - | - | - |
| 1777908886 | 20.56° C | 43% | 1015.2 hPa | - | - | - | - |
| 1777908886 | 20.56° C | 43% | 1015.2 hPa | - | - | - | - |
| 1777908283 | 21.11° C | 45% | 1015.1 hPa | - | - | - | - |
| 1777908283 | 21.11° C | 45% | 1015.1 hPa | - | - | - | - |
| 1777907680 | 21.11° C | 45% | 1015.1 hPa | - | - | - | - |
| 1777907679 | 21.11° C | 45% | 1015.1 hPa | - | - | - | - |
| 1777907076 | 21.11° C | 45% | 1015.1 hPa | - | - | - | - |
* Rain since midnight (hover to see other rain measurements)
** Current wind speed in m/s (hover to see current wind gust speed)